Electric Mills, Mississippi
Current Conditions -  °F | °C
As of 12:56 AM on Wednesday 22 Oct 2014 (Local Time) from KNMM Reporting Station
Clear Clear  
Wind Chill: 53°   Ceiling: Unl
Heat Index: 53°   Visibility: 9mi
Dew Point: 51°   Wind: 3mph
Humidity: 93%   Direction: 330°NNW
Pressure: 30.07"   Gusts: NA
Location:  32.8406°N, 88.5164°W
Report Text: KNMM 220556Z AUTO 33003KT 9SM CLR 12/11 A3007 RMK AO2 SLP191 T01170106 10200 20117 402670078 50005 $
Loading
Personal Weather Stations






























Interactive Weather Map
Tropical Storm Tracking
New forecast layout! Learn more

10-Day Weather Forecast

Advertisements
Track Severe Weather on mobile